Amenia, North Dakota
Current Conditions -  °F | °C
As of 5:53 AM on Monday 26 Jan 2015 (Local Time) from KFAR Reporting Station
Clear Clear  
Wind Chill: -4°   Ceiling: Unl
Heat Index:   Visibility: 10mi
Dew Point: -1°   Wind: 15mph
Humidity: 82%   Direction: 290°WNW
Pressure: 29.67"   Gusts: NA
Location:  47°N, 97.22°W
Report Text: KFAR 261153Z 29013KT 10SM CLR 02/M01 A2967 RMK AO2 SLP060 60000 T00171011 10017 21017 53006
Loading
Personal Weather Stations






























Interactive Weather Map New forecast layout! Learn more

10-Day Weather Forecast

Advertisements
Track Severe Weather on mobile